createdAt,value
2023-01-22T00:05:36.567Z,-2.85
2023-01-22T00:08:04.643Z,-2.87
2023-01-22T00:14:14.868Z,-2.83
2023-01-22T00:16:43.246Z,-2.80
2023-01-22T00:19:11.133Z,-2.80
2023-01-22T00:21:39.181Z,-2.78
2023-01-22T00:24:07.360Z,-2.75
2023-01-22T00:26:35.270Z,-2.74
2023-01-22T00:29:04.270Z,-2.74
2023-01-22T00:31:32.116Z,-2.76
2023-01-22T00:33:59.953Z,-2.76
2023-01-22T00:36:27.871Z,-2.72
2023-01-22T00:38:55.701Z,-2.70
2023-01-22T00:41:23.460Z,-2.64
2023-01-22T00:43:52.971Z,-2.63
2023-01-22T00:46:21.228Z,-2.63
2023-01-22T00:48:51.738Z,-2.61
2023-01-22T00:51:19.686Z,-2.60
2023-01-22T00:53:48.149Z,-2.60
2023-01-22T00:56:17.211Z,-2.62
2023-01-22T00:58:45.666Z,-2.65
2023-01-22T01:01:14.923Z,-2.70
2023-01-22T01:03:42.877Z,-2.73
2023-01-22T01:19:02.110Z,-2.67
2023-01-22T01:21:30.501Z,-2.57
2023-01-22T01:23:59.831Z,-2.50
2023-01-22T01:26:27.691Z,-2.42
2023-01-22T01:28:56.580Z,-2.37
2023-01-22T01:31:26.655Z,-2.32
2023-01-22T01:33:58.838Z,-2.25
2023-01-22T01:36:47.061Z,-2.19
2023-01-22T01:39:14.859Z,-2.14
2023-01-22T01:41:43.220Z,-2.07
2023-01-22T01:44:12.581Z,-1.99
2023-01-22T01:46:45.119Z,-1.90
2023-01-22T01:54:09.431Z,-1.76
2023-01-22T01:56:43.815Z,-1.66
2023-01-22T02:14:33.564Z,-1.29
2023-01-22T02:17:08.752Z,-1.25
2023-01-22T02:24:09.603Z,-1.20
2023-01-22T02:26:38.490Z,-1.18
2023-01-22T02:29:08.413Z,-1.15
2023-01-22T02:31:37.461Z,-1.12
2023-01-22T02:34:06.459Z,-1.10
2023-01-22T02:36:36.429Z,-1.09
2023-01-22T02:39:04.703Z,-1.05
2023-01-22T02:41:32.939Z,-1.01
2023-01-22T02:44:01.112Z,-1.01
2023-01-22T02:46:30.838Z,-0.99
2023-01-22T02:48:58.913Z,-0.95
2023-01-22T02:51:27.188Z,-0.92
2023-01-22T02:53:55.298Z,-0.92
2023-01-22T02:56:23.247Z,-0.90
2023-01-22T02:58:51.727Z,-0.86
2023-01-22T03:01:26.129Z,-0.82
2023-01-22T03:03:59.634Z,-0.79
2023-01-22T03:06:29.710Z,-0.79
2023-01-22T03:09:00.581Z,-0.75
2023-01-22T03:11:30.136Z,-0.67
2023-01-22T03:14:24.274Z,-0.63
2023-01-22T03:17:11.919Z,-0.57
2023-01-22T03:19:59.870Z,-0.57
2023-01-22T03:22:28.980Z,-0.55
2023-01-22T03:24:59.296Z,-0.53
2023-01-22T03:27:27.644Z,-0.53
2023-01-22T03:29:56.370Z,-0.50
2023-01-22T03:32:25.233Z,-0.47
2023-01-22T03:34:54.272Z,-0.42
2023-01-22T03:37:23.518Z,-0.40
2023-01-22T03:39:52.757Z,-0.41
2023-01-22T03:42:26.691Z,-0.41
2023-01-22T03:44:54.494Z,-0.39
2023-01-22T03:47:22.810Z,-0.46
2023-01-22T03:49:51.074Z,-0.50
2023-01-22T03:52:19.326Z,-0.48
2023-01-22T03:54:47.457Z,-0.47
2023-01-22T03:57:15.450Z,-0.49
2023-01-22T03:59:43.894Z,-0.53
2023-01-22T04:02:12.182Z,-0.57
2023-01-22T04:04:48.257Z,-0.59
2023-01-22T04:07:16.227Z,-0.62
2023-01-22T04:09:44.359Z,-0.64
2023-01-22T04:12:13.678Z,-0.65
2023-01-22T04:14:43.463Z,-0.64
2023-01-22T04:17:12.336Z,-0.63
2023-01-22T04:20:03.577Z,-0.62
2023-01-22T04:22:43.705Z,-0.62
2023-01-22T04:25:13.414Z,-0.63
2023-01-22T04:27:41.987Z,-0.64
2023-01-22T04:30:12.428Z,-0.65
2023-01-22T04:32:40.479Z,-0.65
2023-01-22T04:35:22.663Z,-0.65
2023-01-22T04:37:58.523Z,-0.64
2023-01-22T04:40:27.638Z,-0.63
2023-01-22T04:42:56.868Z,-0.63
2023-01-22T04:45:25.123Z,-0.62
2023-01-22T04:47:53.439Z,-0.58
2023-01-22T04:50:28.761Z,-0.56
2023-01-22T04:52:57.822Z,-0.60
2023-01-22T04:55:26.505Z,-0.64
2023-01-22T04:58:01.037Z,-0.62
2023-01-22T05:00:31.031Z,-0.60
2023-01-22T05:03:02.356Z,-0.64
2023-01-22T05:05:31.273Z,-0.65
2023-01-22T05:07:59.712Z,-0.61
2023-01-22T05:10:28.828Z,-0.60
2023-01-22T05:12:57.875Z,-0.58
2023-01-22T05:15:26.794Z,-0.49
2023-01-22T05:17:58.956Z,-0.43
2023-01-22T05:20:27.836Z,-0.38
2023-01-22T05:22:56.049Z,-0.32
2023-01-22T05:25:25.878Z,-0.27
2023-01-22T05:27:54.552Z,-0.24
2023-01-22T05:30:34.508Z,-0.21
2023-01-22T05:33:16.538Z,-0.21
2023-01-22T05:35:44.960Z,-0.17
2023-01-22T05:38:14.604Z,-0.17
2023-01-22T05:40:43.283Z,-0.15
2023-01-22T05:43:12.421Z,-0.14
2023-01-22T05:45:43.700Z,-0.11
2023-01-22T05:48:45.985Z,-0.10
2023-01-22T05:51:18.974Z,-0.07
2023-01-22T05:53:47.160Z,-0.08
2023-01-22T05:56:17.176Z,-0.08
2023-01-22T05:58:45.309Z,-0.06
2023-01-22T06:01:13.791Z,-0.06
2023-01-22T06:03:45.462Z,-0.06
2023-01-22T06:06:15.350Z,-0.08
2023-01-22T06:08:44.372Z,-0.09
2023-01-22T06:11:14.549Z,-0.09
2023-01-22T06:13:47.735Z,-0.09
2023-01-22T06:16:18.395Z,-0.09
2023-01-22T06:19:05.395Z,-0.10
2023-01-22T06:21:40.854Z,-0.09
2023-01-22T06:24:09.371Z,-0.08
2023-01-22T06:26:37.585Z,-0.06
2023-01-22T06:29:06.966Z,-0.07
2023-01-22T06:31:35.922Z,-0.07
2023-01-22T06:34:07.373Z,-0.03
2023-01-22T06:36:35.571Z,-0.02
2023-01-22T06:39:04.304Z,0.02
2023-01-22T06:41:42.162Z,-0.00
2023-01-22T06:44:12.088Z,-0.03
2023-01-22T06:46:40.550Z,-0.08
2023-01-22T06:49:11.531Z,-0.02
2023-01-22T06:51:41.608Z,-0.02
2023-01-22T06:54:13.202Z,0.00
2023-01-22T06:56:41.495Z,0.02
2023-01-22T06:59:09.977Z,0.03
2023-01-22T07:01:38.350Z,0.05
2023-01-22T07:04:06.481Z,0.07
2023-01-22T07:06:34.847Z,0.08
2023-01-22T07:09:03.202Z,0.09
2023-01-22T07:11:31.669Z,0.09
2023-01-22T07:13:59.868Z,0.09
2023-01-22T07:16:28.998Z,0.12
2023-01-22T07:18:57.127Z,0.10
2023-01-22T07:21:24.999Z,0.07
2023-01-22T07:23:53.376Z,0.11
2023-01-22T07:26:21.749Z,0.14
2023-01-22T07:28:50.617Z,0.16
2023-01-22T07:31:19.659Z,0.17
2023-01-22T07:33:47.895Z,0.19
2023-01-22T07:36:15.947Z,0.20
2023-01-22T07:38:44.290Z,0.21
2023-01-22T07:41:25.213Z,0.22
2023-01-22T07:44:00.406Z,0.25
2023-01-22T07:46:29.122Z,0.22
2023-01-22T07:48:57.002Z,0.23
2023-01-22T07:51:25.945Z,0.27
2023-01-22T07:53:56.535Z,0.29
2023-01-22T07:56:25.659Z,0.31
2023-01-22T07:58:54.728Z,0.35
2023-01-22T08:01:24.427Z,0.38
2023-01-22T08:03:53.055Z,0.38
2023-01-22T08:06:24.234Z,0.38
2023-01-22T08:08:58.762Z,0.36
2023-01-22T08:11:28.828Z,0.37
2023-01-22T08:13:56.845Z,0.39
2023-01-22T08:16:24.684Z,0.41
2023-01-22T08:18:52.631Z,0.41
2023-01-22T08:21:22.218Z,0.40
2023-01-22T08:23:51.227Z,0.41
2023-01-22T08:26:19.845Z,0.43
2023-01-22T08:28:49.093Z,0.43
2023-01-22T08:31:27.419Z,0.42
2023-01-22T08:33:59.736Z,0.41
2023-01-22T08:36:29.942Z,0.39
2023-01-22T08:39:00.809Z,0.39
2023-01-22T08:41:30.000Z,0.39
2023-01-22T08:43:58.655Z,0.41
2023-01-22T08:46:27.222Z,0.43
2023-01-22T08:48:55.349Z,0.41
2023-01-22T08:51:25.799Z,0.39
2023-01-22T08:53:55.140Z,0.42
2023-01-22T08:56:23.343Z,0.42
2023-01-22T08:58:52.903Z,0.40
2023-01-22T09:01:23.992Z,0.39
2023-01-22T09:03:52.667Z,0.38
2023-01-22T09:06:20.823Z,0.39
2023-01-22T09:08:49.117Z,0.39
2023-01-22T09:11:17.595Z,0.43
2023-01-22T09:13:46.400Z,0.46
2023-01-22T09:16:15.822Z,0.46
2023-01-22T09:18:43.820Z,0.44
2023-01-22T09:21:11.808Z,0.45
2023-01-22T09:23:40.372Z,0.48
2023-01-22T09:26:09.108Z,0.52
2023-01-22T09:28:37.701Z,0.54
2023-01-22T09:31:06.816Z,0.57
2023-01-22T09:33:34.798Z,0.57
2023-01-22T09:36:14.398Z,0.55
2023-01-22T09:38:42.658Z,0.54
2023-01-22T09:41:34.736Z,0.52
2023-01-22T09:44:06.891Z,0.56
2023-01-22T09:46:42.531Z,0.53
2023-01-22T09:49:18.858Z,0.57
2023-01-22T09:51:55.969Z,0.60
2023-01-22T09:54:25.248Z,0.57
2023-01-22T09:56:54.774Z,0.57
2023-01-22T09:59:50.232Z,0.58
2023-01-22T10:02:38.891Z,0.55
2023-01-22T10:05:31.181Z,0.56
2023-01-22T10:08:14.615Z,0.51
2023-01-22T10:10:42.664Z,0.44
2023-01-22T10:13:22.416Z,0.45
2023-01-22T10:15:52.373Z,0.45
2023-01-22T10:18:38.370Z,0.49
2023-01-22T10:21:12.367Z,0.53
2023-01-22T10:23:40.853Z,0.52
2023-01-22T10:26:25.956Z,0.51
2023-01-22T10:28:56.227Z,0.53
2023-01-22T10:31:28.809Z,0.53
2023-01-22T10:33:58.557Z,0.55
2023-01-22T10:36:28.012Z,0.56
2023-01-22T10:39:12.149Z,0.56
2023-01-22T10:41:44.226Z,0.45
2023-01-22T10:44:26.732Z,0.40
2023-01-22T10:46:55.853Z,0.40
2023-01-22T10:49:26.201Z,0.47
2023-01-22T10:52:00.213Z,0.47
2023-01-22T10:54:42.293Z,0.39
2023-01-22T10:57:27.536Z,0.41
2023-01-22T11:00:22.933Z,0.40
2023-01-22T11:02:51.537Z,0.39
2023-01-22T11:05:20.320Z,0.37
2023-01-22T11:07:50.338Z,0.36
2023-01-22T11:10:24.506Z,0.39
2023-01-22T11:13:11.067Z,0.41
2023-01-22T11:15:48.833Z,0.43
2023-01-22T11:18:30.214Z,0.43
2023-01-22T11:20:59.023Z,0.41
2023-01-22T11:23:46.612Z,0.41
2023-01-22T11:26:47.085Z,0.38
2023-01-22T11:29:25.206Z,0.40
2023-01-22T11:32:09.599Z,0.41
2023-01-22T11:35:13.459Z,0.42
2023-01-22T11:38:05.079Z,0.45
2023-01-22T11:40:35.710Z,0.51
2023-01-22T11:43:18.966Z,0.51
2023-01-22T11:46:05.822Z,0.51
2023-01-22T11:48:56.409Z,0.56
2023-01-22T11:51:37.205Z,0.58
2023-01-22T11:54:20.605Z,0.57
2023-01-22T11:56:48.649Z,0.60
2023-01-22T11:59:38.916Z,0.62
2023-01-22T12:02:16.854Z,0.61
2023-01-22T12:04:59.150Z,0.59
2023-01-22T12:07:36.760Z,0.61
2023-01-22T12:10:38.953Z,0.64
2023-01-22T12:13:20.132Z,0.68
2023-01-22T12:15:56.969Z,0.70
2023-01-22T12:18:53.180Z,0.71
2023-01-22T12:21:31.413Z,0.67
2023-01-22T12:24:26.418Z,0.68
2023-01-22T12:27:12.314Z,0.69
2023-01-22T12:29:44.666Z,0.68
2023-01-22T12:32:15.817Z,0.69
2023-01-22T12:34:48.645Z,0.73
2023-01-22T12:37:19.907Z,0.75
2023-01-22T12:40:18.462Z,0.71
2023-01-22T12:43:05.093Z,0.69
2023-01-22T12:45:35.104Z,0.76
2023-01-22T12:48:27.898Z,0.74
2023-01-22T12:50:56.873Z,0.70
2023-01-22T12:53:36.162Z,0.73
2023-01-22T12:56:11.724Z,0.75
2023-01-22T12:58:42.058Z,0.74
2023-01-22T13:01:10.785Z,0.72
2023-01-22T13:03:42.876Z,0.70
2023-01-22T13:06:23.506Z,0.70
2023-01-22T13:08:51.765Z,0.71
2023-01-22T13:11:31.897Z,0.70
2023-01-22T13:14:39.863Z,0.73
2023-01-22T13:17:34.947Z,0.75
2023-01-22T13:20:04.321Z,0.75
2023-01-22T13:22:32.458Z,0.78
2023-01-22T13:25:00.667Z,0.80
2023-01-22T13:27:32.572Z,0.85
2023-01-22T13:30:15.247Z,0.88
2023-01-22T13:32:43.500Z,0.89
2023-01-22T13:35:15.468Z,0.92
2023-01-22T13:37:46.029Z,0.94
2023-01-22T13:40:25.026Z,0.94
2023-01-22T13:42:53.201Z,0.95
2023-01-22T13:45:32.533Z,0.93
2023-01-22T13:48:03.918Z,0.95
2023-01-22T13:50:33.320Z,0.94
2023-01-22T13:53:02.439Z,0.98
2023-01-22T13:55:30.842Z,0.98
2023-01-22T13:57:59.819Z,1.02
2023-01-22T14:00:30.693Z,1.07
2023-01-22T14:02:59.448Z,1.08
2023-01-22T14:05:35.212Z,1.11
2023-01-22T14:08:08.923Z,1.16
2023-01-22T14:10:37.844Z,1.18
2023-01-22T14:16:39.948Z,1.18
2023-01-22T14:19:09.424Z,1.20
2023-01-22T14:21:38.710Z,1.20
2023-01-22T14:24:07.910Z,1.20
2023-01-22T14:26:36.134Z,1.21
2023-01-22T14:29:04.467Z,1.23
2023-01-22T14:31:33.003Z,1.24
2023-01-22T14:34:01.598Z,1.22
2023-01-22T14:36:30.353Z,1.24
2023-01-22T14:39:00.626Z,1.18
2023-01-22T14:41:29.165Z,1.19
2023-01-22T14:43:57.983Z,1.18
2023-01-22T14:46:26.578Z,1.20
2023-01-22T14:48:56.523Z,1.19
2023-01-22T14:51:25.045Z,1.21
2023-01-22T14:53:53.599Z,1.20
2023-01-22T14:56:22.582Z,1.19
2023-01-22T14:58:51.075Z,1.21
2023-01-22T15:01:24.276Z,1.21
2023-01-22T15:03:53.333Z,1.22
2023-01-22T15:06:21.527Z,1.24
2023-01-22T15:08:49.808Z,1.27
2023-01-22T15:11:18.231Z,1.30
2023-01-22T15:13:46.551Z,1.32
2023-01-22T15:16:16.226Z,1.34
2023-01-22T15:18:47.765Z,1.34
2023-01-22T15:21:16.165Z,1.36
2023-01-22T15:23:48.428Z,1.35
2023-01-22T15:26:43.444Z,1.34
2023-01-22T15:29:14.666Z,1.36
2023-01-22T15:31:44.577Z,1.38
2023-01-22T15:34:13.521Z,1.37
2023-01-22T15:36:46.255Z,1.39
2023-01-22T15:39:15.068Z,1.38
2023-01-22T15:41:43.859Z,1.39
2023-01-22T15:44:13.720Z,1.37
2023-01-22T15:46:43.115Z,1.32
2023-01-22T15:49:14.603Z,1.31
2023-01-22T15:51:44.713Z,1.28
2023-01-22T15:54:18.415Z,1.26
2023-01-22T15:56:47.888Z,1.27
2023-01-22T15:59:16.573Z,1.28
2023-01-22T16:01:45.663Z,1.31
2023-01-22T16:04:16.470Z,1.29
2023-01-22T16:06:47.576Z,1.30
2023-01-22T16:09:16.345Z,1.32
2023-01-22T16:11:49.727Z,1.32
2023-01-22T16:14:20.937Z,1.32
2023-01-22T16:16:54.989Z,1.32
2023-01-22T16:19:25.321Z,1.32
2023-01-22T16:21:56.230Z,1.33
2023-01-22T16:24:27.579Z,1.30
2023-01-22T16:26:57.472Z,1.28
2023-01-22T16:29:28.635Z,1.30
2023-01-22T16:31:58.913Z,1.31
2023-01-22T16:34:29.206Z,1.28
2023-01-22T16:37:02.120Z,1.26
2023-01-22T16:39:35.110Z,1.26
2023-01-22T16:42:07.115Z,1.23
2023-01-22T16:44:38.795Z,1.23
2023-01-22T16:47:07.981Z,1.21
2023-01-22T16:49:44.766Z,1.21
2023-01-22T16:52:22.404Z,1.23
2023-01-22T16:54:53.928Z,1.19
2023-01-22T16:57:25.553Z,1.17
2023-01-22T17:00:00.519Z,1.17
2023-01-22T17:02:32.643Z,1.17
2023-01-22T17:05:02.880Z,1.21
2023-01-22T17:07:42.123Z,1.20
2023-01-22T17:10:18.235Z,1.17
2023-01-22T17:12:48.619Z,1.18
2023-01-22T17:15:18.567Z,1.19
2023-01-22T17:17:51.457Z,1.18
2023-01-22T17:20:28.467Z,1.16
2023-01-22T17:23:01.544Z,1.15
2023-01-22T17:25:33.187Z,1.16
2023-01-22T17:28:04.470Z,1.15
2023-01-22T17:30:33.499Z,1.15
2023-01-22T17:33:04.334Z,1.17
2023-01-22T17:35:36.276Z,1.17
2023-01-22T17:38:10.133Z,1.16
2023-01-22T17:40:39.496Z,1.17
2023-01-22T17:43:17.211Z,1.16
2023-01-22T17:45:50.918Z,1.17
2023-01-22T17:48:22.931Z,1.16
2023-01-22T17:50:53.220Z,1.14
2023-01-22T17:53:26.527Z,1.15
2023-01-22T17:56:13.334Z,1.14
2023-01-22T17:58:43.967Z,1.13
2023-01-22T18:01:18.068Z,1.11
2023-01-22T18:03:50.144Z,1.08
2023-01-22T18:06:20.536Z,1.08
2023-01-22T18:08:52.817Z,1.08
2023-01-22T18:11:30.294Z,1.06
2023-01-22T18:14:04.925Z,1.05
2023-01-22T18:16:36.215Z,1.04
2023-01-22T18:19:08.750Z,1.04
2023-01-22T18:21:38.572Z,1.04
2023-01-22T18:24:08.658Z,1.05
2023-01-22T18:26:43.129Z,1.05
2023-01-22T18:29:16.546Z,1.05
2023-01-22T18:31:49.218Z,1.03
2023-01-22T18:34:21.094Z,1.03
2023-01-22T18:36:53.479Z,1.01
2023-01-22T18:39:22.350Z,1.01
2023-01-22T18:41:53.061Z,0.99
2023-01-22T18:44:23.897Z,0.98
2023-01-22T18:46:57.743Z,0.97
2023-01-22T18:49:28.934Z,1.01
2023-01-22T18:52:02.186Z,1.01
2023-01-22T18:54:31.490Z,0.99
2023-01-22T18:57:06.420Z,0.97
2023-01-22T18:59:37.263Z,0.97
2023-01-22T19:02:11.239Z,0.96
2023-01-22T19:04:41.041Z,0.96
2023-01-22T19:07:10.890Z,0.95
2023-01-22T19:09:40.991Z,0.97
2023-01-22T19:12:14.430Z,1.00
2023-01-22T19:14:43.437Z,0.97
2023-01-22T19:17:14.961Z,0.99
2023-01-22T19:19:45.846Z,0.98
2023-01-22T19:22:14.658Z,0.94
2023-01-22T19:24:44.558Z,0.95
2023-01-22T19:27:13.297Z,0.89
2023-01-22T19:29:43.381Z,0.88
2023-01-22T19:32:17.017Z,0.85
2023-01-22T19:34:45.532Z,0.85
2023-01-22T19:37:15.866Z,0.85
2023-01-22T19:39:45.900Z,0.83
2023-01-22T19:42:17.318Z,0.81
2023-01-22T19:44:47.639Z,0.81
2023-01-22T19:47:16.621Z,0.82
2023-01-22T19:49:46.778Z,0.79
2023-01-22T19:52:15.477Z,0.78
2023-01-22T19:54:48.115Z,0.77
2023-01-22T19:57:16.814Z,0.77
2023-01-22T19:59:48.630Z,0.78
2023-01-22T20:02:19.723Z,0.77
2023-01-22T20:04:49.296Z,0.76
2023-01-22T20:07:17.366Z,0.76
2023-01-22T20:09:45.795Z,0.77
2023-01-22T20:12:14.084Z,0.77
2023-01-22T20:14:44.435Z,0.75
2023-01-22T20:17:17.267Z,0.75
2023-01-22T20:19:45.810Z,0.72
2023-01-22T20:22:14.566Z,0.68
2023-01-22T20:24:43.290Z,0.67
2023-01-22T20:27:13.179Z,0.66
2023-01-22T20:29:42.100Z,0.63
2023-01-22T20:32:10.177Z,0.61
2023-01-22T20:34:38.861Z,0.59
2023-01-22T20:37:07.705Z,0.57
2023-01-22T20:39:35.677Z,0.57
2023-01-22T20:42:04.776Z,0.56
2023-01-22T20:44:34.599Z,0.54
2023-01-22T20:47:02.804Z,0.52
2023-01-22T20:49:31.670Z,0.51
2023-01-22T20:52:01.902Z,0.50
2023-01-22T20:54:31.086Z,0.49
2023-01-22T20:56:59.140Z,0.47
2023-01-22T20:59:29.312Z,0.49
2023-01-22T21:01:59.799Z,0.48
2023-01-22T21:04:27.989Z,0.49
2023-01-22T21:06:57.654Z,0.46
2023-01-22T21:09:28.594Z,0.45
2023-01-22T21:11:57.010Z,0.43
2023-01-22T21:14:26.588Z,0.41
2023-01-22T21:16:54.825Z,0.39
2023-01-22T21:19:24.310Z,0.35
2023-01-22T21:21:53.108Z,0.37
2023-01-22T21:24:21.075Z,0.39
2023-01-22T21:26:49.055Z,0.38
2023-01-22T21:29:21.829Z,0.39
2023-01-22T21:31:50.577Z,0.38
2023-01-22T21:34:20.360Z,0.38
2023-01-22T21:36:53.815Z,0.37
2023-01-22T21:39:24.660Z,0.38
2023-01-22T21:42:12.828Z,0.38
2023-01-22T21:44:59.151Z,0.40
2023-01-22T21:47:27.437Z,0.39
2023-01-22T21:49:55.772Z,0.37
2023-01-22T21:52:23.747Z,0.35
2023-01-22T21:54:51.995Z,0.39
2023-01-22T21:57:20.421Z,0.34
2023-01-22T21:59:48.519Z,0.32
2023-01-22T22:02:18.179Z,0.31
2023-01-22T22:04:46.354Z,0.30
2023-01-22T22:07:14.282Z,0.28
2023-01-22T22:09:42.695Z,0.24
2023-01-22T22:12:10.872Z,0.22
2023-01-22T22:14:38.916Z,0.22
2023-01-22T22:17:08.337Z,0.22
2023-01-22T22:19:36.313Z,0.23
2023-01-22T22:22:04.042Z,0.22
2023-01-22T22:24:32.073Z,0.20
2023-01-22T22:27:00.788Z,0.18
2023-01-22T22:29:28.580Z,0.15
2023-01-22T22:31:56.560Z,0.16
2023-01-22T22:34:24.551Z,0.15
2023-01-22T22:36:52.809Z,0.12
2023-01-22T22:39:20.520Z,0.07
2023-01-22T22:41:49.065Z,0.08
2023-01-22T22:44:18.422Z,0.07
2023-01-22T22:46:46.420Z,0.06
2023-01-22T22:49:14.555Z,0.04
2023-01-22T22:51:43.256Z,0.03
2023-01-22T22:54:16.855Z,0.03
2023-01-22T22:56:48.907Z,0.05
2023-01-22T22:59:19.184Z,0.08
2023-01-22T23:01:50.861Z,0.08
2023-01-22T23:04:18.831Z,0.11
2023-01-22T23:06:47.073Z,0.12
2023-01-22T23:09:17.240Z,0.11
2023-01-22T23:11:45.332Z,0.13
2023-01-22T23:14:13.337Z,0.14
2023-01-22T23:16:42.591Z,0.16
2023-01-22T23:19:15.248Z,0.15
2023-01-22T23:21:43.758Z,0.15
2023-01-22T23:24:12.870Z,0.19
2023-01-22T23:26:41.553Z,0.21
2023-01-22T23:29:10.737Z,0.22
2023-01-22T23:31:39.820Z,0.14
2023-01-22T23:34:09.612Z,0.11
2023-01-22T23:36:37.402Z,0.13
2023-01-22T23:39:05.395Z,0.13
2023-01-22T23:41:33.129Z,0.15
2023-01-22T23:44:01.103Z,0.17
2023-01-22T23:46:29.571Z,0.17
2023-01-22T23:48:58.118Z,0.17
2023-01-22T23:51:26.588Z,0.18
2023-01-22T23:53:54.551Z,0.17
2023-01-22T23:56:24.486Z,0.16
2023-01-22T23:58:56.329Z,0.18
